KEIK

Erie Municipal Airport

Erie, Colorado, USA
METAR KEIK 210512Z AUTO 33004KT 7SM SCT060 13/08 A3029 RMK AO2 T01270082
Observed Flight Rules
Aug-21 @ 05:12 UTC (9 hours ago) Visual Flight Rules
Wind Visibility Clouds
330° at 4 knots 7 miles
  • Scattered at 6,000' AGL
Temperatures Readings
Current 13°C / 55°F
Dewpoint 8°C / 46°F
Humidity 72%
Altimeter 30.29" Hg
Pressure 1026 hPa
Elevation 1564
METAR KEIK 210512Z AUTO 33004KT 7SM SCT060 13/08 A3029 RMK AO2 T01270082
Observed Flight Rules
Aug-21 @ 05:12 UTC
(9 hours ago)
VFR
Wind Visibility
330° at 4 knots 7 miles
Clouds
  • Scattered at 6,000' AGL
Temperature Dewpoint
13°C / 55°F 8°C / 46°F
Humidity Altimeter Pressure
72% 30.29" Hg 1026 hPa